Time;durP1;ratioP1;P1;durP2;ratioP2;P2;SDS_P1;SDS_P2;PMS_P1;PMS_P2;Temp;Humidity;BMP_temperature;BMP_pressure;BME280_temperature;BME280_humidity;BME280_pressure;Samples;Min_cycle;Max_cycle;Signal;HPM_P1;HPM_P2
2022/06/04 01:33:59;;;;;;;32.37;20.83;;;;;;;34.39;46.89;100878.22;5037990;28;20500;-74
2022/06/04 01:43:30;;;;;;;34.33;21.00;;;;;;;34.81;46.05;100876.81;5054971;28;20426;-73
2022/06/04 01:49:28;;;;;;;27.40;20.70;;;;;;;34.39;46.79;100878.22;5055032;28;20435;-74
2022/06/04 01:55:51;;;;;;;29.80;21.10;;;;;;;34.70;45.88;100886.88;5054821;28;20987;-74
2022/06/04 01:58:45;;;;;;;26.20;19.53;;;;;;;34.95;45.81;100894.75;5047749;28;20433;-74
2022/06/04 02:02:04;;;;;;;27.47;23.50;;;;;;;35.12;45.01;100888.94;5053437;28;20423;-74
2022/06/04 02:08:23;;;;;;;27.83;22.47;;;;;;;34.90;45.78;100892.06;5033431;28;20437;-73
2022/06/04 02:42:04;;;;;;;36.87;26.73;;;;;;;34.40;46.40;100883.31;5053060;28;20449;-73
2022/06/04 02:44:45;;;;;;;31.33;23.97;;;;;;;34.13;46.85;100883.78;5015013;28;20425;-73
2022/06/04 02:47:19;;;;;;;35.47;23.70;;;;;;;34.03;46.75;100888.41;5052026;28;20445;-74
2022/06/04 02:49:57;;;;;;;34.27;22.90;;;;;;;34.03;46.94;100891.91;5052333;28;20414;-74
2022/06/04 02:52:31;;;;;;;39.00;24.30;;;;;;;33.81;47.24;100900.31;5053162;28;20437;-73
2022/06/04 02:55:15;;;;;;;31.00;25.13;;;;;;;33.63;47.85;100896.38;5052192;28;20429;-72
2022/06/04 02:57:51;;;;;;;30.13;23.23;;;;;;;33.72;47.53;100895.81;5054016;28;20473;-73
2022/06/04 03:00:25;;;;;;;39.87;25.40;;;;;;;33.94;47.18;100897.06;5052198;28;20453;-73
2022/06/04 03:03:19;;;;;;;27.17;24.47;;;;;;;33.98;46.84;100901.91;5052424;28;20423;-74
2022/06/04 03:06:33;;;;;;;49.70;25.17;;;;;;;33.98;46.87;100913.47;5052221;28;20414;-74
2022/06/04 03:09:21;;;;;;;31.80;24.70;;;;;;;34.01;46.72;100914.78;5051932;28;20477;-73
2022/06/04 03:11:49;;;;;;;32.90;23.80;;;;;;;34.16;46.28;100912.81;5052053;28;20431;-73
2022/06/04 03:14:34;;;;;;;34.43;23.83;;;;;;;34.26;46.39;100916.56;5052040;28;20419;-73
2022/06/04 03:34:16;;;;;;;31.47;24.87;;;;;;;33.79;47.47;100925.91;5052974;28;20453;-73
2022/06/04 03:36:42;;;;;;;35.07;24.73;;;;;;;34.06;46.42;100918.25;5053178;28;20430;-73
2022/06/04 03:39:11;;;;;;;48.53;37.53;;;;;;;34.17;46.32;100925.19;5050651;28;20482;-75
2022/06/04 03:41:43;;;;;;;53.77;39.00;;;;;;;34.18;46.36;100926.78;5034254;28;20418;-75
2022/06/04 03:44:25;;;;;;;44.50;32.70;;;;;;;34.28;45.77;100923.25;5033142;28;20446;-72
2022/06/04 03:46:57;;;;;;;35.13;24.17;;;;;;;34.14;46.09;100923.06;5033633;28;20940;-73
2022/06/04 03:49:32;;;;;;;30.93;23.30;;;;;;;34.17;46.10;100929.78;5050328;28;20541;-73
2022/06/04 03:52:06;;;;;;;33.87;21.40;;;;;;;34.06;46.26;100930.91;5050665;28;20422;-74
2022/06/04 03:54:57;;;;;;;32.27;23.57;;;;;;;33.87;46.84;100936.88;5049669;28;20437;-73
2022/06/04 03:57:52;;;;;;;31.87;24.60;;;;;;;33.88;46.97;100935.84;5050194;28;20854;-72
2022/06/04 04:03:34;;;;;;;37.90;20.70;;;;;;;34.17;46.39;100924.38;5016785;28;20475;-74
2022/06/04 04:12:56;;;;;;;31.47;22.07;;;;;;;34.18;46.21;100934.88;5010877;28;20455;-74
2022/06/04 04:18:48;;;;;;;30.73;20.13;;;;;;;34.12;46.76;100935.97;5010612;28;20467;-74
2022/06/04 04:24:34;;;;;;;27.87;23.07;;;;;;;34.38;46.32;100947.44;5061644;28;20449;-73
2022/06/04 04:27:16;;;;;;;29.30;24.33;;;;;;;34.46;45.96;100946.06;5071159;28;20426;-73
2022/06/04 04:30:03;;;;;;;37.87;25.10;;;;;;;34.35;46.31;100950.66;5070989;28;20924;-73
2022/06/04 04:32:46;;;;;;;26.00;19.70;;;;;;;33.97;47.18;100954.91;5070986;28;20457;-73
2022/06/04 04:35:30;;;;;;;28.57;23.13;;;;;;;34.05;47.08;100962.41;5071107;28;20943;-74
2022/06/04 04:38:00;;;;;;;36.23;22.00;;;;;;;34.00;47.40;100961.63;5070937;28;21003;-75
2022/06/04 04:40:35;;;;;;;30.90;22.20;;;;;;;33.97;47.28;100959.50;5070427;28;20453;-74
2022/06/04 04:43:10;;;;;;;30.87;24.63;;;;;;;33.91;47.55;100967.59;5070959;28;20417;-74
2022/06/04 04:49:03;;;;;;;41.83;27.80;;;;;;;34.28;46.90;100968.22;5070342;28;20417;-73
2022/06/04 04:51:56;;;;;;;39.60;26.40;;;;;;;34.29;46.99;100956.38;5070732;28;20441;-74
2022/06/04 04:54:34;;;;;;;39.77;27.67;;;;;;;34.42;46.62;100964.66;5070946;28;20444;-74
2022/06/04 04:57:39;;;;;;;38.47;28.60;;;;;;;34.53;46.21;100969.97;5072377;28;20429;-73
2022/06/04 05:00:12;;;;;;;29.27;24.83;;;;;;;34.48;46.25;100965.44;5070634;28;20596;-73
2022/06/04 05:02:49;;;;;;;32.60;23.50;;;;;;;34.38;46.82;100963.59;5070689;28;20414;-74
2022/06/04 05:05:36;;;;;;;37.47;29.30;;;;;;;33.97;47.84;100976.44;5070868;28;20418;-73
2022/06/04 05:08:06;;;;;;;36.93;26.50;;;;;;;33.89;47.84;100980.50;5060362;28;20825;-73
2022/06/04 05:10:47;;;;;;;33.33;25.17;;;;;;;33.77;48.41;100974.63;5051868;28;20506;-73
2022/06/04 05:13:31;;;;;;;32.90;24.13;;;;;;;33.76;48.32;100970.31;5054219;28;20842;-73
2022/06/04 05:16:00;;;;;;;34.70;25.90;;;;;;;33.54;49.09;100972.53;5054111;28;20452;-73
2022/06/04 05:21:50;;;;;;;36.37;24.43;;;;;;;33.55;49.55;100971.44;5048172;28;20793;-73
2022/06/04 05:24:44;;;;;;;37.60;23.20;;;;;;;33.84;48.71;100975.13;5054086;28;20832;-74
2022/06/04 05:27:32;;;;;;;33.77;25.80;;;;;;;34.13;48.05;100983.38;5054199;28;21054;-73
2022/06/04 05:30:01;;;;;;;35.23;28.37;;;;;;;34.16;47.63;100987.41;5054159;28;20455;-74
2022/06/04 05:32:38;;;;;;;38.50;27.57;;;;;;;34.06;47.69;100977.47;5053988;28;21201;-73
2022/06/04 05:35:24;;;;;;;46.50;26.40;;;;;;;34.12;47.85;100979.06;5055526;28;20498;-74
2022/06/04 05:38:34;;;;;;;41.60;29.20;;;;;;;34.25;47.72;100982.22;5053368;28;20942;-74
2022/06/04 05:42:26;;;;;;;47.33;31.77;;;;;;;34.24;47.38;100986.81;5036158;28;20520;-74
2022/06/04 05:45:02;;;;;;;47.60;34.90;;;;;;;33.87;48.14;100988.03;5036632;28;20422;-73
2022/06/04 05:47:45;;;;;;;41.70;29.57;;;;;;;33.72;48.65;100992.66;5037038;28;20446;-72
2022/06/04 05:50:26;;;;;;;41.20;29.17;;;;;;;33.75;48.34;100984.84;5055345;28;20410;-73
2022/06/04 05:52:57;;;;;;;38.53;27.97;;;;;;;33.79;48.37;100987.78;5036535;28;20467;-73
2022/06/04 05:55:24;;;;;;;48.93;30.60;;;;;;;33.65;48.65;100985.69;5020740;28;20556;-72
2022/06/04 05:57:56;;;;;;;36.10;28.03;;;;;;;33.65;48.20;100985.69;5036775;28;20415;-73
2022/06/04 06:00:25;;;;;;;43.83;29.43;;;;;;;33.51;49.28;100973.06;5035579;28;20461;-73
2022/06/04 06:02:54;;;;;;;39.27;27.50;;;;;;;33.36;49.17;100979.25;5036839;28;20505;-72
2022/06/04 06:05:22;;;;;;;41.70;27.40;;;;;;;33.38;48.78;100975.22;5050318;28;20436;-72
2022/06/04 06:07:57;;;;;;;47.67;33.07;;;;;;;33.53;48.94;100979.00;5036653;28;20438;-72
2022/06/04 06:10:28;;;;;;;42.17;29.93;;;;;;;33.61;48.61;100991.88;5032888;28;20785;-73
2022/06/04 06:12:54;;;;;;;42.87;29.67;;;;;;;33.71;48.47;100986.47;5027011;28;20415;-74
2022/06/04 06:15:26;;;;;;;40.17;30.07;;;;;;;33.64;48.98;100978.69;5072617;28;20398;-73
2022/06/04 06:17:55;;;;;;;46.93;28.40;;;;;;;33.56;48.93;100986.50;5054147;28;20964;-76
2022/06/04 06:20:26;;;;;;;40.33;27.03;;;;;;;33.51;49.08;100989.19;5054158;28;20552;-76
2022/06/04 06:22:55;;;;;;;38.23;30.57;;;;;;;33.69;49.14;101004.75;5032597;28;20422;-72
2022/06/04 06:29:20;;;;;;;43.73;31.27;;;;;;;33.78;48.82;101013.91;5053958;28;20425;-74
2022/06/04 06:31:58;;;;;;;43.43;33.90;;;;;;;33.41;49.37;101009.66;5053565;28;20398;-74
2022/06/04 06:34:46;;;;;;;41.17;33.13;;;;;;;33.49;49.73;101015.56;5035886;28;20414;-74
2022/06/04 06:37:31;;;;;;;48.70;32.33;;;;;;;33.59;49.73;101020.94;5053497;28;20580;-74
2022/06/04 06:40:09;;;;;;;42.47;31.63;;;;;;;33.77;48.94;101033.81;5053611;28;20489;-74
2022/06/04 06:42:38;;;;;;;52.10;35.33;;;;;;;33.75;49.03;101033.25;5034887;28;20430;-73
2022/06/04 06:45:38;;;;;;;42.77;31.80;;;;;;;33.64;49.33;101034.38;5037284;28;20422;-73
2022/06/04 06:48:11;;;;;;;45.00;32.63;;;;;;;33.88;48.97;101038.09;5027347;28;20399;-72
2022/06/04 06:50:42;;;;;;;48.00;32.47;;;;;;;33.78;49.11;101037.31;5032222;28;20562;-72
2022/06/04 06:53:27;;;;;;;105.43;64.63;;;;;;;33.88;48.92;101035.41;5024536;28;20412;-72
2022/06/04 06:56:42;;;;;;;55.23;39.50;;;;;;;33.89;48.89;101042.38;5038703;28;20470;-72
2022/06/04 06:59:18;;;;;;;;;;;;;;;;;;;;;
2022/06/04 07:01:55;;;;;;;48.70;32.00;;;;;;;34.00;48.62;101042.38;5033087;28;20420;-72
2022/06/04 07:04:37;;;;;;;35.43;27.90;;;;;;;33.91;48.86;101047.50;5031152;28;20450;-73
2022/06/04 07:07:14;;;;;;;41.33;31.10;;;;;;;34.01;48.72;101049.34;5034621;28;20522;-73
2022/06/04 07:09:59;;;;;;;;;;;;;;;;;;;;;
2022/06/04 07:12:28;;;;;;;39.37;30.60;;;;;;;34.31;48.11;101049.25;5051513;28;20460;-72
2022/06/04 07:15:07;;;;;;;;;;;;;;;;;;;;;
2022/06/04 07:17:44;;;;;;;42.30;29.70;;;;;;;34.33;48.35;101060.56;5052451;28;20411;-72
2022/06/04 07:20:13;;;;;;;51.30;33.00;;;;;;;34.29;48.66;101064.88;5028299;28;20502;-73
2022/06/04 07:22:44;;;;;;;42.20;33.23;;;;;;;34.35;48.34;101061.06;5014751;28;20422;-73
2022/06/04 07:25:18;;;;;;;38.80;28.57;;;;;;;34.51;48.24;101069.94;5014772;28;20511;-71
2022/06/04 07:27:46;;;;;;;53.37;29.53;;;;;;;34.89;47.74;101068.34;5014611;28;20807;-73
2022/06/04 07:30:15;;;;;;;35.10;24.47;;;;;;;34.76;47.48;101068.97;5015590;28;20419;-73
2022/06/04 07:32:49;;;;;;;35.07;26.27;;;;;;;35.03;47.17;101067.75;5033890;28;20421;-73
2022/06/04 07:35:21;;;;;;;30.77;23.60;;;;;;;35.21;47.09;101069.75;5050785;28;20446;-72
2022/06/04 07:37:49;;;;;;;29.03;22.23;;;;;;;35.39;46.30;101065.56;5029111;28;20438;-73
2022/06/04 07:40:29;;;;;;;31.93;26.60;;;;;;;35.51;46.20;101071.44;5025364;28;20494;-73
2022/06/04 07:43:04;;;;;;;41.67;25.37;;;;;;;35.44;46.82;101069.06;5027468;28;20425;-71
2022/06/04 07:45:34;;;;;;;58.13;40.80;;;;;;;35.45;46.84;101059.88;5026572;28;20418;-70
2022/06/04 07:48:04;;;;;;;74.97;50.07;;;;;;;35.45;46.51;101064.47;5049624;28;20430;-71
2022/06/04 07:50:34;;;;;;;53.37;35.63;;;;;;;35.49;46.87;101071.72;5026761;28;20787;-75
2022/06/04 07:53:09;;;;;;;40.57;28.40;;;;;;;35.66;46.65;101063.16;5033668;28;21013;-75
2022/06/04 07:55:44;;;;;;;44.40;33.90;;;;;;;35.72;45.80;101063.91;5028440;28;20441;-75
2022/06/04 07:58:21;;;;;;;56.87;37.50;;;;;;;35.55;46.42;101060.88;5048506;28;20793;-72
2022/06/04 08:01:14;;;;;;;44.87;31.50;;;;;;;35.45;46.72;101053.66;5028239;28;20520;-72
2022/06/04 08:03:47;;;;;;;52.27;36.77;;;;;;;35.36;46.46;101044.53;5028747;28;20466;-71
2022/06/04 08:06:17;;;;;;;45.90;33.47;;;;;;;35.62;46.26;101048.66;5031134;28;20445;-69
2022/06/04 08:08:51;;;;;;;43.87;31.97;;;;;;;35.84;46.20;101045.44;5031777;28;20433;-69
2022/06/04 08:11:39;;;;;;;46.20;30.43;;;;;;;35.90;46.01;101044.28;5019937;28;20422;-71
2022/06/04 08:14:29;;;;;;;66.80;35.83;;;;;;;35.79;45.64;101042.81;5033116;28;20868;-69
2022/06/04 08:17:04;;;;;;;60.80;36.60;;;;;;;35.55;46.19;101036.59;5008276;28;20431;-70
2022/06/04 08:19:42;;;;;;;37.80;27.70;;;;;;;35.67;45.82;101045.91;5007154;28;20468;-70
2022/06/04 08:22:41;;;;;;;36.17;25.33;;;;;;;35.63;46.02;101052.16;4992572;28;20431;-68
2022/06/04 08:25:13;;;;;;;39.80;22.93;;;;;;;35.78;45.68;101054.69;4992438;28;20765;-69
2022/06/04 08:27:44;;;;;;;55.03;38.17;;;;;;;35.82;46.08;101061.13;4994301;28;20427;-70
2022/06/04 08:30:14;;;;;;;60.53;38.77;;;;;;;35.86;45.76;101062.16;4986090;28;20428;-69
2022/06/04 08:32:43;;;;;;;67.80;35.97;;;;;;;35.94;45.59;101061.56;4993276;28;20427;-70
2022/06/04 08:35:12;;;;;;;39.07;25.90;;;;;;;35.98;46.02;101067.19;4992480;28;20431;-69
2022/06/04 08:37:43;;;;;;;38.97;25.90;;;;;;;35.98;45.66;101069.91;4993240;28;20451;-69
2022/06/04 08:40:32;;;;;;;35.30;26.63;;;;;;;36.03;45.86;101065.25;4989519;28;20476;-71
2022/06/04 08:43:25;;;;;;;39.73;27.17;;;;;;;35.97;46.13;101066.41;4990209;28;21123;-71
2022/06/04 08:45:51;;;;;;;40.17;27.33;;;;;;;36.06;45.73;101075.47;4991049;28;20488;-71
2022/06/04 08:48:34;;;;;;;44.20;29.17;;;;;;;36.24;45.98;101075.78;5031915;28;20793;-70
2022/06/04 08:51:01;;;;;;;37.50;26.97;;;;;;;36.31;45.63;101068.13;5042694;28;20435;-71
2022/06/04 08:53:33;;;;;;;34.00;27.43;;;;;;;36.35;45.25;101079.19;5033038;28;20455;-71
2022/06/04 08:59:36;;;;;;;43.50;31.27;;;;;;;36.53;46.08;101079.22;5034251;28;20512;-71
2022/06/04 09:02:18;;;;;;;36.83;23.93;;;;;;;36.57;45.00;101066.72;5017014;28;20523;-71
2022/06/04 09:05:22;;;;;;;37.30;27.40;;;;;;;36.68;45.28;101078.19;5017788;28;20480;-73
2022/06/04 09:08:03;;;;;;;;;;;;;;;;;;;;;
2022/06/04 09:10:39;;;;;;;35.40;27.27;;;;;;;36.84;44.87;101092.31;5034936;28;20420;-72
2022/06/04 09:13:42;;;;;;;42.07;28.13;;;;;;;36.87;45.17;101089.03;5022276;28;20451;-75
2022/06/04 09:16:47;;;;;;;;;;;;;;;;;;;;;
2022/06/04 09:19:24;;;;;;;44.57;29.70;;;;;;;36.98;44.63;101098.59;5030586;28;20490;-71
2022/06/04 09:21:57;;;;;;;47.33;28.23;;;;;;;36.72;45.18;101098.16;5026471;28;20419;-69
2022/06/04 09:24:26;;;;;;;46.07;27.97;;;;;;;36.80;45.36;101104.78;4994677;28;20797;-73
2022/06/04 09:27:21;;;;;;;43.23;30.20;;;;;;;36.92;45.32;101098.97;5014427;28;20812;-72
2022/06/04 09:30:20;;;;;;;38.73;29.47;;;;;;;36.95;45.38;101101.88;5012276;28;20802;-71
2022/06/04 09:33:00;;;;;;;44.30;29.30;;;;;;;37.02;44.50;101096.13;4997161;28;20478;-71
2022/06/04 09:35:33;;;;;;;52.17;32.70;;;;;;;36.98;45.04;101104.00;5015145;28;20436;-74
